Terminal Aerodrome Forecast
Issued by NWS Grand Forks, ND

Home | Current Version | Previous Version | Graphics & Text | Print | Product List | Glossary On
Versions: 1 2 3 4 5 6 7 8 9 10 11 12 13 14 15
000
FTUS43 KFGF 220520
TAFGFK
TAF
KGFK 220520Z 2206/2306 17011KT P6SM BKN250 WS020/18040KT
     FM221300 16014KT P6SM BKN250
     FM221600 17020G28KT P6SM SCT100 BKN250
     FM222000 17022G30KT P6SM BKN050
     FM230100 18018KT P6SM BKN025
     FM230400 17013KT P6SM VCSH BKN030=

USA.gov is the U.S. government's official web portal to all federal, state and local government web resources and services.